sensor_id;sensor_type;location;lat;lon;timestamp;pressure;altitude;pressure_sealevel;temperature;humidity
7584;BME280;3833;41.764;26.204;2023-02-18T00:00:29;99694.13;;;2.47;100.00
7584;BME280;3833;41.764;26.204;2023-02-18T00:02:55;99695.00;;;2.46;100.00
7584;BME280;3833;41.764;26.204;2023-02-18T00:05:22;99693.19;;;2.51;100.00
7584;BME280;3833;41.764;26.204;2023-02-18T00:07:49;99692.94;;;2.63;100.00
7584;BME280;3833;41.764;26.204;2023-02-18T00:10:16;99694.03;;;2.52;100.00
7584;BME280;3833;41.764;26.204;2023-02-18T00:12:43;99670.38;;;2.32;100.00
7584;BME280;3833;41.764;26.204;2023-02-18T00:15:12;99694.28;;;2.40;100.00
7584;BME280;3833;41.764;26.204;2023-02-18T00:17:38;99684.72;;;2.46;100.00
7584;BME280;3833;41.764;26.204;2023-02-18T00:20:06;99688.78;;;2.58;100.00
7584;BME280;3833;41.764;26.204;2023-02-18T00:22:33;99664.91;;;2.48;100.00
7584;BME280;3833;41.764;26.204;2023-02-18T00:25:00;99686.47;;;2.44;100.00
7584;BME280;3833;41.764;26.204;2023-02-18T00:27:27;99685.34;;;2.57;100.00
7584;BME280;3833;41.764;26.204;2023-02-18T00:29:54;99677.22;;;2.77;100.00
7584;BME280;3833;41.764;26.204;2023-02-18T00:32:22;99680.78;;;2.71;100.00
7584;BME280;3833;41.764;26.204;2023-02-18T00:34:49;99675.78;;;2.62;100.00
7584;BME280;3833;41.764;26.204;2023-02-18T00:37:16;99680.28;;;2.53;100.00
7584;BME280;3833;41.764;26.204;2023-02-18T00:39:43;99649.16;;;2.63;100.00
7584;BME280;3833;41.764;26.204;2023-02-18T00:42:10;99669.00;;;2.58;100.00
7584;BME280;3833;41.764;26.204;2023-02-18T00:44:37;99670.91;;;2.50;100.00
7584;BME280;3833;41.764;26.204;2023-02-18T00:47:04;99671.97;;;2.37;100.00
7584;BME280;3833;41.764;26.204;2023-02-18T00:49:32;99671.16;;;2.35;100.00
7584;BME280;3833;41.764;26.204;2023-02-18T00:51:59;99664.72;;;2.13;100.00
7584;BME280;3833;41.764;26.204;2023-02-18T00:54:26;99655.50;;;2.02;100.00
7584;BME280;3833;41.764;26.204;2023-02-18T00:56:52;99649.47;;;2.03;100.00
7584;BME280;3833;41.764;26.204;2023-02-18T00:59:19;99647.41;;;2.21;100.00
7584;BME280;3833;41.764;26.204;2023-02-18T01:01:46;99645.81;;;2.14;100.00
7584;BME280;3833;41.764;26.204;2023-02-18T01:04:13;99644.81;;;2.23;100.00
7584;BME280;3833;41.764;26.204;2023-02-18T01:06:41;99640.25;;;2.35;100.00
7584;BME280;3833;41.764;26.204;2023-02-18T01:09:09;99607.31;;;2.07;100.00
7584;BME280;3833;41.764;26.204;2023-02-18T01:11:35;99529.22;;;1.64;100.00
7584;BME280;3833;41.764;26.204;2023-02-18T01:14:02;99621.84;;;2.11;100.00
7584;BME280;3833;41.764;26.204;2023-02-18T01:16:29;99577.59;;;1.93;100.00
7584;BME280;3833;41.764;26.204;2023-02-18T01:18:56;99604.53;;;2.19;100.00
7584;BME280;3833;41.764;26.204;2023-02-18T01:21:23;99597.91;;;2.07;100.00
7584;BME280;3833;41.764;26.204;2023-02-18T01:23:51;99573.09;;;2.03;100.00
7584;BME280;3833;41.764;26.204;2023-02-18T01:26:18;99590.38;;;2.39;100.00
7584;BME280;3833;41.764;26.204;2023-02-18T01:28:45;99594.13;;;3.05;100.00
7584;BME280;3833;41.764;26.204;2023-02-18T01:31:13;99590.28;;;3.22;100.00
7584;BME280;3833;41.764;26.204;2023-02-18T01:33:40;99564.44;;;2.88;100.00
7584;BME280;3833;41.764;26.204;2023-02-18T01:36:09;99558.38;;;2.52;100.00
7584;BME280;3833;41.764;26.204;2023-02-18T01:38:36;99541.91;;;2.96;100.00
7584;BME280;3833;41.764;26.204;2023-02-18T01:41:04;99568.34;;;3.40;100.00
7584;BME280;3833;41.764;26.204;2023-02-18T01:43:32;99559.91;;;2.97;100.00
7584;BME280;3833;41.764;26.204;2023-02-18T01:46:11;99557.81;;;3.14;100.00
7584;BME280;3833;41.764;26.204;2023-02-18T01:48:41;99512.31;;;2.75;100.00
7584;BME280;3833;41.764;26.204;2023-02-18T01:51:11;99556.44;;;3.00;100.00
7584;BME280;3833;41.764;26.204;2023-02-18T01:53:44;99470.03;;;2.46;100.00
7584;BME280;3833;41.764;26.204;2023-02-18T01:56:19;99547.97;;;2.55;100.00
7584;BME280;3833;41.764;26.204;2023-02-18T01:58:48;99560.66;;;2.64;100.00
7584;BME280;3833;41.764;26.204;2023-02-18T02:01:16;99550.94;;;2.37;100.00
7584;BME280;3833;41.764;26.204;2023-02-18T02:03:43;99554.25;;;2.42;100.00
7584;BME280;3833;41.764;26.204;2023-02-18T02:06:15;99542.53;;;2.29;100.00
7584;BME280;3833;41.764;26.204;2023-02-18T02:08:44;99533.78;;;2.36;100.00
7584;BME280;3833;41.764;26.204;2023-02-18T02:11:22;99542.91;;;2.11;100.00
7584;BME280;3833;41.764;26.204;2023-02-18T02:14:10;99548.72;;;2.21;100.00
7584;BME280;3833;41.764;26.204;2023-02-18T02:16:44;99474.16;;;1.74;100.00
7584;BME280;3833;41.764;26.204;2023-02-18T02:25:49;99526.59;;;2.11;100.00
7584;BME280;3833;41.764;26.204;2023-02-18T02:28:48;99505.75;;;1.81;100.00
7584;BME280;3833;41.764;26.204;2023-02-18T02:31:46;99527.06;;;1.87;100.00
7584;BME280;3833;41.764;26.204;2023-02-18T02:34:50;99495.50;;;1.78;100.00
7584;BME280;3833;41.764;26.204;2023-02-18T02:37:41;99527.66;;;2.01;100.00
7584;BME280;3833;41.764;26.204;2023-02-18T02:40:18;99530.66;;;1.79;100.00
7584;BME280;3833;41.764;26.204;2023-02-18T02:42:56;99541.25;;;1.64;100.00
7584;BME280;3833;41.764;26.204;2023-02-18T02:45:34;99535.13;;;1.71;100.00
7584;BME280;3833;41.764;26.204;2023-02-18T02:48:09;99538.56;;;1.70;100.00
7584;BME280;3833;41.764;26.204;2023-02-18T02:50:45;99536.63;;;1.81;100.00
7584;BME280;3833;41.764;26.204;2023-02-18T02:53:20;99543.88;;;1.61;100.00
7584;BME280;3833;41.764;26.204;2023-02-18T02:55:48;99547.13;;;1.72;100.00
7584;BME280;3833;41.764;26.204;2023-02-18T02:58:16;99551.28;;;1.77;100.00
7584;BME280;3833;41.764;26.204;2023-02-18T03:00:54;99535.13;;;1.71;100.00
7584;BME280;3833;41.764;26.204;2023-02-18T03:03:37;99555.63;;;1.74;100.00
7584;BME280;3833;41.764;26.204;2023-02-18T03:06:26;99557.59;;;1.60;100.00
7584;BME280;3833;41.764;26.204;2023-02-18T03:09:05;99559.78;;;1.81;100.00
7584;BME280;3833;41.764;26.204;2023-02-18T03:11:41;99566.78;;;1.74;100.00
7584;BME280;3833;41.764;26.204;2023-02-18T03:14:14;99572.34;;;1.50;100.00
7584;BME280;3833;41.764;26.204;2023-02-18T03:16:47;99556.13;;;1.47;100.00
7584;BME280;3833;41.764;26.204;2023-02-18T03:19:19;99575.69;;;1.54;100.00
7584;BME280;3833;41.764;26.204;2023-02-18T03:21:53;99564.84;;;1.37;100.00
7584;BME280;3833;41.764;26.204;2023-02-18T03:24:26;99580.06;;;1.52;100.00
7584;BME280;3833;41.764;26.204;2023-02-18T03:26:57;99487.34;;;1.11;100.00
7584;BME280;3833;41.764;26.204;2023-02-18T03:29:25;99574.25;;;1.38;100.00
7584;BME280;3833;41.764;26.204;2023-02-18T03:31:56;99576.34;;;1.66;100.00
7584;BME280;3833;41.764;26.204;2023-02-18T03:34:29;99532.09;;;1.48;100.00
7584;BME280;3833;41.764;26.204;2023-02-18T03:36:59;99468.34;;;1.19;100.00
7584;BME280;3833;41.764;26.204;2023-02-18T03:39:29;99580.09;;;1.97;100.00
7584;BME280;3833;41.764;26.204;2023-02-18T03:41:56;99582.03;;;1.85;100.00
7584;BME280;3833;41.764;26.204;2023-02-18T03:44:23;99588.88;;;1.84;100.00
7584;BME280;3833;41.764;26.204;2023-02-18T03:46:51;99582.13;;;1.80;100.00
7584;BME280;3833;41.764;26.204;2023-02-18T03:49:18;99555.69;;;1.71;100.00
7584;BME280;3833;41.764;26.204;2023-02-18T03:51:45;99578.53;;;1.89;100.00
7584;BME280;3833;41.764;26.204;2023-02-18T03:54:13;99572.50;;;1.90;100.00
7584;BME280;3833;41.764;26.204;2023-02-18T03:56:40;99553.56;;;1.94;100.00
7584;BME280;3833;41.764;26.204;2023-02-18T03:59:07;99557.78;;;1.96;100.00
7584;BME280;3833;41.764;26.204;2023-02-18T04:01:35;99559.22;;;2.10;100.00
7584;BME280;3833;41.764;26.204;2023-02-18T04:04:02;99547.31;;;2.05;100.00
7584;BME280;3833;41.764;26.204;2023-02-18T04:06:29;99541.47;;;1.96;100.00
7584;BME280;3833;41.764;26.204;2023-02-18T04:08:56;99537.00;;;2.06;100.00
7584;BME280;3833;41.764;26.204;2023-02-18T04:11:24;99555.44;;;2.28;100.00
7584;BME280;3833;41.764;26.204;2023-02-18T04:13:51;99554.53;;;2.30;100.00
7584;BME280;3833;41.764;26.204;2023-02-18T04:16:17;99554.19;;;2.04;100.00
7584;BME280;3833;41.764;26.204;2023-02-18T04:18:44;99542.97;;;2.08;100.00
7584;BME280;3833;41.764;26.204;2023-02-18T04:21:11;99556.81;;;2.03;100.00
7584;BME280;3833;41.764;26.204;2023-02-18T04:23:38;99572.59;;;1.84;100.00
7584;BME280;3833;41.764;26.204;2023-02-18T04:26:05;99538.00;;;1.54;100.00
7584;BME280;3833;41.764;26.204;2023-02-18T04:28:33;99497.09;;;0.90;100.00
7584;BME280;3833;41.764;26.204;2023-02-18T04:31:00;99580.56;;;1.70;100.00
7584;BME280;3833;41.764;26.204;2023-02-18T04:33:26;99579.59;;;1.76;100.00
7584;BME280;3833;41.764;26.204;2023-02-18T04:35:53;99579.31;;;1.92;100.00
7584;BME280;3833;41.764;26.204;2023-02-18T04:38:20;99586.94;;;1.97;100.00
7584;BME280;3833;41.764;26.204;2023-02-18T04:40:47;99509.09;;;1.86;100.00
7584;BME280;3833;41.764;26.204;2023-02-18T04:43:14;99590.97;;;2.53;100.00
7584;BME280;3833;41.764;26.204;2023-02-18T04:45:42;99577.91;;;2.20;100.00
7584;BME280;3833;41.764;26.204;2023-02-18T04:48:09;99580.66;;;2.12;100.00
7584;BME280;3833;41.764;26.204;2023-02-18T04:50:36;99484.75;;;1.59;100.00
7584;BME280;3833;41.764;26.204;2023-02-18T04:53:02;99585.72;;;2.15;100.00
7584;BME280;3833;41.764;26.204;2023-02-18T04:55:29;99583.69;;;2.32;100.00
7584;BME280;3833;41.764;26.204;2023-02-18T04:57:56;99584.47;;;2.36;100.00
7584;BME280;3833;41.764;26.204;2023-02-18T05:00:23;99581.28;;;2.64;100.00
7584;BME280;3833;41.764;26.204;2023-02-18T05:02:52;99601.94;;;2.61;100.00
7584;BME280;3833;41.764;26.204;2023-02-18T05:05:19;99574.44;;;2.63;100.00
7584;BME280;3833;41.764;26.204;2023-02-18T05:07:46;99586.50;;;2.61;100.00
7584;BME280;3833;41.764;26.204;2023-02-18T05:10:15;99572.19;;;2.47;100.00
7584;BME280;3833;41.764;26.204;2023-02-18T05:12:42;99580.34;;;2.67;100.00
7584;BME280;3833;41.764;26.204;2023-02-18T05:15:09;99584.97;;;2.92;100.00
7584;BME280;3833;41.764;26.204;2023-02-18T05:17:36;99579.41;;;2.72;100.00
7584;BME280;3833;41.764;26.204;2023-02-18T05:20:06;99581.81;;;3.16;100.00
7584;BME280;3833;41.764;26.204;2023-02-18T05:22:33;99593.44;;;2.97;100.00
7584;BME280;3833;41.764;26.204;2023-02-18T05:25:00;99588.31;;;2.96;100.00
7584;BME280;3833;41.764;26.204;2023-02-18T05:27:27;99584.28;;;2.84;100.00
7584;BME280;3833;41.764;26.204;2023-02-18T05:29:54;99572.66;;;3.05;100.00
7584;BME280;3833;41.764;26.204;2023-02-18T05:32:20;99594.41;;;2.92;100.00
7584;BME280;3833;41.764;26.204;2023-02-18T05:34:47;99599.97;;;3.13;100.00
7584;BME280;3833;41.764;26.204;2023-02-18T05:37:16;99593.50;;;3.32;100.00
7584;BME280;3833;41.764;26.204;2023-02-18T05:39:43;99608.72;;;3.41;100.00
7584;BME280;3833;41.764;26.204;2023-02-18T05:42:10;99599.44;;;3.69;100.00
7584;BME280;3833;41.764;26.204;2023-02-18T05:44:37;99597.34;;;3.83;100.00
7584;BME280;3833;41.764;26.204;2023-02-18T05:47:07;99594.34;;;3.99;100.00
7584;BME280;3833;41.764;26.204;2023-02-18T05:49:35;99560.84;;;3.96;100.00
7584;BME280;3833;41.764;26.204;2023-02-18T05:52:03;99579.81;;;4.27;100.00
7584;BME280;3833;41.764;26.204;2023-02-18T05:54:31;99519.31;;;4.04;100.00
7584;BME280;3833;41.764;26.204;2023-02-18T05:56:58;99567.75;;;4.56;100.00
7584;BME280;3833;41.764;26.204;2023-02-18T05:59:25;99555.72;;;4.55;100.00
7584;BME280;3833;41.764;26.204;2023-02-18T06:01:53;99579.94;;;4.80;100.00
7584;BME280;3833;41.764;26.204;2023-02-18T06:04:20;99587.06;;;5.01;100.00
7584;BME280;3833;41.764;26.204;2023-02-18T06:06:47;99507.03;;;4.69;100.00
7584;BME280;3833;41.764;26.204;2023-02-18T06:09:13;99584.34;;;5.33;100.00
7584;BME280;3833;41.764;26.204;2023-02-18T06:11:42;99579.28;;;5.82;100.00
7584;BME280;3833;41.764;26.204;2023-02-18T06:14:09;99586.88;;;6.35;100.00
7584;BME280;3833;41.764;26.204;2023-02-18T06:16:36;99570.88;;;7.57;100.00
7584;BME280;3833;41.764;26.204;2023-02-18T06:19:03;99578.25;;;7.46;100.00
7584;BME280;3833;41.764;26.204;2023-02-18T06:21:30;99589.91;;;7.77;100.00
7584;BME280;3833;41.764;26.204;2023-02-18T06:23:57;99603.09;;;7.73;100.00
7584;BME280;3833;41.764;26.204;2023-02-18T06:26:24;99540.91;;;9.03;100.00
7584;BME280;3833;41.764;26.204;2023-02-18T06:28:53;99526.19;;;11.47;100.00
7584;BME280;3833;41.764;26.204;2023-02-18T06:31:20;99578.63;;;13.44;100.00
7584;BME280;3833;41.764;26.204;2023-02-18T06:33:47;99526.84;;;11.66;95.08
7584;BME280;3833;41.764;26.204;2023-02-18T06:36:14;99598.69;;;10.49;100.00
7584;BME280;3833;41.764;26.204;2023-02-18T06:38:42;99600.94;;;10.23;100.00
7584;BME280;3833;41.764;26.204;2023-02-18T06:41:10;99597.09;;;11.41;100.00
7584;BME280;3833;41.764;26.204;2023-02-18T06:43:38;99533.88;;;11.19;100.00
7584;BME280;3833;41.764;26.204;2023-02-18T06:46:06;99553.53;;;11.86;97.79
7584;BME280;3833;41.764;26.204;2023-02-18T06:48:34;99614.69;;;12.56;93.89
7584;BME280;3833;41.764;26.204;2023-02-18T06:51:01;99606.38;;;12.36;94.83
7584;BME280;3833;41.764;26.204;2023-02-18T06:53:28;99585.41;;;11.93;93.62
7584;BME280;3833;41.764;26.204;2023-02-18T06:55:55;99602.72;;;10.06;100.00
7584;BME280;3833;41.764;26.204;2023-02-18T06:58:22;99602.25;;;10.15;100.00
7584;BME280;3833;41.764;26.204;2023-02-18T07:00:49;99596.53;;;9.90;100.00
7584;BME280;3833;41.764;26.204;2023-02-18T07:03:17;99595.94;;;9.32;100.00
7584;BME280;3833;41.764;26.204;2023-02-18T07:05:44;99585.50;;;9.85;100.00
7584;BME280;3833;41.764;26.204;2023-02-18T07:08:11;99582.59;;;8.07;100.00
7584;BME280;3833;41.764;26.204;2023-02-18T07:10:38;99587.16;;;9.17;100.00
7584;BME280;3833;41.764;26.204;2023-02-18T07:13:06;99490.69;;;9.01;100.00
7584;BME280;3833;41.764;26.204;2023-02-18T07:15:33;99598.59;;;9.66;100.00
7584;BME280;3833;41.764;26.204;2023-02-18T07:18:00;99507.44;;;9.65;100.00
7584;BME280;3833;41.764;26.204;2023-02-18T07:20:28;99596.19;;;13.29;100.00
7584;BME280;3833;41.764;26.204;2023-02-18T07:22:55;99588.44;;;15.42;87.05
7584;BME280;3833;41.764;26.204;2023-02-18T07:25:22;99587.75;;;15.63;84.98
7584;BME280;3833;41.764;26.204;2023-02-18T07:27:50;99581.50;;;18.07;73.01
7584;BME280;3833;41.764;26.204;2023-02-18T07:30:18;99581.56;;;15.29;78.81
7584;BME280;3833;41.764;26.204;2023-02-18T07:32:45;99561.22;;;14.82;83.75
7584;BME280;3833;41.764;26.204;2023-02-18T07:35:14;99568.31;;;15.77;79.46
7584;BME280;3833;41.764;26.204;2023-02-18T07:37:44;99477.91;;;16.11;74.69
7584;BME280;3833;41.764;26.204;2023-02-18T07:40:13;99552.44;;;17.86;69.53
7584;BME280;3833;41.764;26.204;2023-02-18T07:42:40;99547.06;;;17.24;69.68
7584;BME280;3833;41.764;26.204;2023-02-18T07:45:08;99517.72;;;17.06;71.70
7584;BME280;3833;41.764;26.204;2023-02-18T07:47:35;99538.56;;;17.09;70.03
7584;BME280;3833;41.764;26.204;2023-02-18T07:50:03;99540.41;;;16.76;71.23
7584;BME280;3833;41.764;26.204;2023-02-18T07:52:30;99444.72;;;17.70;69.05
7584;BME280;3833;41.764;26.204;2023-02-18T07:54:59;99496.13;;;18.06;65.69
7584;BME280;3833;41.764;26.204;2023-02-18T07:57:26;99534.59;;;17.15;69.59
7584;BME280;3833;41.764;26.204;2023-02-18T07:59:53;99532.47;;;15.98;75.45
7584;BME280;3833;41.764;26.204;2023-02-18T08:02:21;99513.59;;;16.26;74.27
7584;BME280;3833;41.764;26.204;2023-02-18T08:04:48;99518.44;;;16.32;77.14
7584;BME280;3833;41.764;26.204;2023-02-18T08:07:17;99469.94;;;15.44;77.60
7584;BME280;3833;41.764;26.204;2023-02-18T08:09:46;99510.13;;;15.80;77.29
7584;BME280;3833;41.764;26.204;2023-02-18T08:12:16;99512.34;;;17.08;75.33
7584;BME280;3833;41.764;26.204;2023-02-18T08:14:43;99514.38;;;16.50;75.57
7584;BME280;3833;41.764;26.204;2023-02-18T08:17:10;99525.81;;;17.47;71.46
7584;BME280;3833;41.764;26.204;2023-02-18T08:19:36;99525.59;;;17.39;68.66
7584;BME280;3833;41.764;26.204;2023-02-18T08:22:03;99525.22;;;18.27;68.19
7584;BME280;3833;41.764;26.204;2023-02-18T08:24:30;99519.34;;;18.74;66.00
7584;BME280;3833;41.764;26.204;2023-02-18T08:26:57;99506.94;;;16.44;70.95
7584;BME280;3833;41.764;26.204;2023-02-18T08:29:26;99487.25;;;16.15;73.43
7584;BME280;3833;41.764;26.204;2023-02-18T08:31:53;99498.25;;;15.98;75.84
7584;BME280;3833;41.764;26.204;2023-02-18T08:34:21;99494.69;;;17.19;70.75
7584;BME280;3833;41.764;26.204;2023-02-18T08:36:48;99495.22;;;18.17;65.92
7584;BME280;3833;41.764;26.204;2023-02-18T08:39:17;99499.34;;;17.27;68.20
7584;BME280;3833;41.764;26.204;2023-02-18T08:41:44;99483.28;;;15.64;72.88
7584;BME280;3833;41.764;26.204;2023-02-18T08:44:11;99482.38;;;15.76;74.47
7584;BME280;3833;41.764;26.204;2023-02-18T08:46:39;99472.00;;;14.92;76.10
7584;BME280;3833;41.764;26.204;2023-02-18T08:49:06;99471.75;;;15.07;77.63
7584;BME280;3833;41.764;26.204;2023-02-18T08:51:33;99453.63;;;15.28;76.94
7584;BME280;3833;41.764;26.204;2023-02-18T08:54:00;99484.84;;;14.96;79.23
7584;BME280;3833;41.764;26.204;2023-02-18T08:56:27;99492.00;;;14.94;79.64
7584;BME280;3833;41.764;26.204;2023-02-18T08:58:54;99492.75;;;17.32;71.89
7584;BME280;3833;41.764;26.204;2023-02-18T09:01:21;99467.66;;;16.73;69.60
7584;BME280;3833;41.764;26.204;2023-02-18T09:03:49;99491.94;;;17.63;66.35
7584;BME280;3833;41.764;26.204;2023-02-18T09:06:16;99480.47;;;16.56;69.13
7584;BME280;3833;41.764;26.204;2023-02-18T09:08:43;99489.63;;;15.96;71.58
7584;BME280;3833;41.764;26.204;2023-02-18T09:11:10;99489.22;;;16.89;70.83
7584;BME280;3833;41.764;26.204;2023-02-18T09:13:37;99483.34;;;18.91;63.15
7584;BME280;3833;41.764;26.204;2023-02-18T09:16:06;99473.59;;;20.07;58.65
7584;BME280;3833;41.764;26.204;2023-02-18T09:18:35;99463.34;;;21.56;55.92
7584;BME280;3833;41.764;26.204;2023-02-18T09:21:05;99471.16;;;20.23;56.38
7584;BME280;3833;41.764;26.204;2023-02-18T09:23:34;99395.56;;;17.78;60.60
7584;BME280;3833;41.764;26.204;2023-02-18T09:26:03;99457.91;;;17.90;61.76
7584;BME280;3833;41.764;26.204;2023-02-18T09:28:31;99473.03;;;17.25;63.27
7584;BME280;3833;41.764;26.204;2023-02-18T09:31:03;99484.09;;;17.41;65.58
7584;BME280;3833;41.764;26.204;2023-02-18T09:33:30;99472.25;;;17.14;65.26
7584;BME280;3833;41.764;26.204;2023-02-18T09:35:56;99478.75;;;17.52;64.07
7584;BME280;3833;41.764;26.204;2023-02-18T09:38:25;99486.84;;;16.54;64.51
7584;BME280;3833;41.764;26.204;2023-02-18T09:40:52;99446.44;;;15.64;67.68
7584;BME280;3833;41.764;26.204;2023-02-18T09:43:23;99465.09;;;16.06;68.67
7584;BME280;3833;41.764;26.204;2023-02-18T09:45:53;99487.97;;;16.28;68.73
7584;BME280;3833;41.764;26.204;2023-02-18T09:48:25;99490.72;;;17.14;65.95
7584;BME280;3833;41.764;26.204;2023-02-18T09:50:53;99484.19;;;17.40;65.29
7584;BME280;3833;41.764;26.204;2023-02-18T09:53:21;99475.91;;;16.25;66.81
7584;BME280;3833;41.764;26.204;2023-02-18T09:55:51;99466.34;;;16.57;68.09
7584;BME280;3833;41.764;26.204;2023-02-18T09:58:21;99461.69;;;16.39;67.69
7584;BME280;3833;41.764;26.204;2023-02-18T10:00:52;99405.72;;;15.46;68.22
7584;BME280;3833;41.764;26.204;2023-02-18T10:03:21;99480.19;;;15.59;72.31
7584;BME280;3833;41.764;26.204;2023-02-18T10:05:55;99481.81;;;16.51;69.10
7584;BME280;3833;41.764;26.204;2023-02-18T10:08:25;99472.22;;;16.39;68.48
7584;BME280;3833;41.764;26.204;2023-02-18T10:10:55;99465.00;;;16.84;68.76
7584;BME280;3833;41.764;26.204;2023-02-18T10:13:24;99473.00;;;17.05;68.22
7584;BME280;3833;41.764;26.204;2023-02-18T10:15:51;99389.00;;;17.52;65.28
7584;BME280;3833;41.764;26.204;2023-02-18T10:18:27;99447.66;;;19.25;60.12
7584;BME280;3833;41.764;26.204;2023-02-18T10:21:04;99366.97;;;19.94;57.86
7584;BME280;3833;41.764;26.204;2023-02-18T10:23:33;99438.09;;;19.04;59.09
7584;BME280;3833;41.764;26.204;2023-02-18T10:26:06;99443.88;;;19.75;58.10
7584;BME280;3833;41.764;26.204;2023-02-18T10:28:35;99446.88;;;18.56;59.02
7584;BME280;3833;41.764;26.204;2023-02-18T10:31:06;99445.91;;;18.27;59.81
7584;BME280;3833;41.764;26.204;2023-02-18T10:33:39;99444.53;;;17.82;60.56
7584;BME280;3833;41.764;26.204;2023-02-18T10:36:25;99440.50;;;17.67;61.62
7584;BME280;3833;41.764;26.204;2023-02-18T10:39:13;99434.03;;;18.42;60.27
7584;BME280;3833;41.764;26.204;2023-02-18T10:41:50;99424.66;;;17.67;60.88
7584;BME280;3833;41.764;26.204;2023-02-18T10:44:26;99431.63;;;17.68;61.09
7584;BME280;3833;41.764;26.204;2023-02-18T10:47:00;99418.69;;;17.85;60.16
7584;BME280;3833;41.764;26.204;2023-02-18T10:49:49;99427.00;;;17.81;62.30
7584;BME280;3833;41.764;26.204;2023-02-18T10:52:20;99399.66;;;17.30;61.91
7584;BME280;3833;41.764;26.204;2023-02-18T10:54:52;99424.59;;;17.58;62.09
7584;BME280;3833;41.764;26.204;2023-02-18T10:57:22;99410.09;;;16.89;62.97
7584;BME280;3833;41.764;26.204;2023-02-18T10:59:58;99338.00;;;16.68;63.27
7584;BME280;3833;41.764;26.204;2023-02-18T11:02:27;99331.72;;;16.49;63.07
7584;BME280;3833;41.764;26.204;2023-02-18T11:04:56;99318.38;;;17.13;62.42
7584;BME280;3833;41.764;26.204;2023-02-18T11:07:26;99334.97;;;17.86;61.95
7584;BME280;3833;41.764;26.204;2023-02-18T11:09:56;99325.47;;;17.74;60.48
7584;BME280;3833;41.764;26.204;2023-02-18T11:12:28;99360.81;;;19.00;59.78
7584;BME280;3833;41.764;26.204;2023-02-18T11:15:14;99359.41;;;19.06;57.68
7584;BME280;3833;41.764;26.204;2023-02-18T11:17:43;99358.31;;;19.92;53.74
7584;BME280;3833;41.764;26.204;2023-02-18T11:20:22;99341.03;;;19.42;55.86
7584;BME280;3833;41.764;26.204;2023-02-18T11:22:50;99356.34;;;19.48;56.46
7584;BME280;3833;41.764;26.204;2023-02-18T11:25:22;99351.16;;;18.71;56.82
7584;BME280;3833;41.764;26.204;2023-02-18T11:27:54;99324.66;;;18.43;57.98
7584;BME280;3833;41.764;26.204;2023-02-18T11:30:24;99343.63;;;18.67;58.65
7584;BME280;3833;41.764;26.204;2023-02-18T11:32:55;99306.34;;;18.21;58.94
7584;BME280;3833;41.764;26.204;2023-02-18T11:35:26;99267.50;;;18.12;58.60
7584;BME280;3833;41.764;26.204;2023-02-18T11:37:56;99348.28;;;19.02;59.22
7584;BME280;3833;41.764;26.204;2023-02-18T11:40:25;99337.41;;;19.34;56.95
7584;BME280;3833;41.764;26.204;2023-02-18T11:43:03;99336.69;;;18.84;56.82
7584;BME280;3833;41.764;26.204;2023-02-18T11:45:32;99325.47;;;18.34;58.49
7584;BME280;3833;41.764;26.204;2023-02-18T11:48:06;99319.41;;;18.62;57.24
7584;BME280;3833;41.764;26.204;2023-02-18T11:50:34;99314.94;;;18.72;57.13
7584;BME280;3833;41.764;26.204;2023-02-18T11:53:27;99317.09;;;19.80;54.90
7584;BME280;3833;41.764;26.204;2023-02-18T11:55:56;99309.88;;;20.36;53.92
7584;BME280;3833;41.764;26.204;2023-02-18T11:58:26;99295.19;;;20.24;51.50
7584;BME280;3833;41.764;26.204;2023-02-18T12:00:54;99298.53;;;20.26;52.52
7584;BME280;3833;41.764;26.204;2023-02-18T12:03:29;99302.03;;;20.17;53.16
7584;BME280;3833;41.764;26.204;2023-02-18T12:05:59;99287.97;;;20.16;51.63
7584;BME280;3833;41.764;26.204;2023-02-18T12:08:31;99276.66;;;20.59;47.67
7584;BME280;3833;41.764;26.204;2023-02-18T12:11:03;99271.06;;;21.14;44.75
7584;BME280;3833;41.764;26.204;2023-02-18T12:13:37;99274.50;;;21.06;48.01
7584;BME280;3833;41.764;26.204;2023-02-18T12:16:12;99267.28;;;20.20;46.06
7584;BME280;3833;41.764;26.204;2023-02-18T12:18:56;99184.53;;;19.99;45.85
7584;BME280;3833;41.764;26.204;2023-02-18T12:21:41;99247.84;;;20.02;46.71
7584;BME280;3833;41.764;26.204;2023-02-18T12:24:21;99244.78;;;20.24;46.73
7584;BME280;3833;41.764;26.204;2023-02-18T12:26:58;99246.06;;;20.20;46.51
7584;BME280;3833;41.764;26.204;2023-02-18T12:29:42;99245.53;;;20.16;47.77
7584;BME280;3833;41.764;26.204;2023-02-18T12:32:18;99234.06;;;19.89;47.99
7584;BME280;3833;41.764;26.204;2023-02-18T12:38:04;99254.56;;;19.96;50.78
7584;BME280;3833;41.764;26.204;2023-02-18T12:40:49;99177.66;;;19.79;49.43
7584;BME280;3833;41.764;26.204;2023-02-18T12:43:23;99235.34;;;19.85;50.13
7584;BME280;3833;41.764;26.204;2023-02-18T12:46:18;99240.81;;;20.10;47.12
7584;BME280;3833;41.764;26.204;2023-02-18T12:49:18;99231.25;;;20.27;45.04
7584;BME280;3833;41.764;26.204;2023-02-18T12:51:59;99223.09;;;20.11;43.73
7584;BME280;3833;41.764;26.204;2023-02-18T12:54:39;99232.34;;;20.07;45.39
7584;BME280;3833;41.764;26.204;2023-02-18T12:57:22;99220.81;;;19.89;45.80
7584;BME280;3833;41.764;26.204;2023-02-18T13:00:27;99224.81;;;19.76;45.49
7584;BME280;3833;41.764;26.204;2023-02-18T13:03:26;99229.13;;;19.77;45.32
7584;BME280;3833;41.764;26.204;2023-02-18T13:06:06;99205.81;;;19.80;45.56
7584;BME280;3833;41.764;26.204;2023-02-18T13:08:46;99217.78;;;20.11;44.03
7584;BME280;3833;41.764;26.204;2023-02-18T13:11:28;99215.50;;;20.43;43.81
7584;BME280;3833;41.764;26.204;2023-02-18T13:14:02;99200.53;;;20.24;44.05
7584;BME280;3833;41.764;26.204;2023-02-18T13:16:30;99207.38;;;20.44;43.27
7584;BME280;3833;41.764;26.204;2023-02-18T13:19:03;99203.78;;;20.18;43.18
7584;BME280;3833;41.764;26.204;2023-02-18T13:21:35;99190.09;;;19.96;42.97
7584;BME280;3833;41.764;26.204;2023-02-18T13:24:08;99190.66;;;19.90;42.96
7584;BME280;3833;41.764;26.204;2023-02-18T13:26:35;99197.97;;;19.79;43.18
7584;BME280;3833;41.764;26.204;2023-02-18T13:29:15;99207.53;;;19.72;43.31
7584;BME280;3833;41.764;26.204;2023-02-18T13:31:53;99200.47;;;19.89;43.49
7584;BME280;3833;41.764;26.204;2023-02-18T13:34:31;99196.31;;;19.78;44.03
7584;BME280;3833;41.764;26.204;2023-02-18T13:37:07;99193.06;;;19.66;43.82